sensor_id;sensor_type;location;lat;lon;timestamp;pressure;altitude;pressure_sealevel;temperature;humidity
49423;BME280;36998;51.974;20.150;2022-07-29T00:01:24;100572.44;;;15.31;60.58
49423;BME280;36998;51.974;20.150;2022-07-29T00:03:50;100574.47;;;15.29;60.65
49423;BME280;36998;51.974;20.150;2022-07-29T00:06:16;100574.00;;;15.25;60.64
49423;BME280;36998;51.974;20.150;2022-07-29T00:08:41;100570.81;;;15.21;60.57
49423;BME280;36998;51.974;20.150;2022-07-29T00:11:07;100570.34;;;15.18;60.55
49423;BME280;36998;51.974;20.150;2022-07-29T00:13:32;100578.31;;;15.19;60.88
49423;BME280;36998;51.974;20.150;2022-07-29T00:16:24;100575.97;;;15.16;60.77
49423;BME280;36998;51.974;20.150;2022-07-29T00:18:49;100576.16;;;15.15;61.06
49423;BME280;36998;51.974;20.150;2022-07-29T00:21:15;100586.59;;;15.11;60.98
49423;BME280;36998;51.974;20.150;2022-07-29T00:23:41;100582.50;;;15.07;61.40
49423;BME280;36998;51.974;20.150;2022-07-29T00:26:14;100577.28;;;15.06;61.51
49423;BME280;36998;51.974;20.150;2022-07-29T00:28:40;100582.72;;;15.06;61.33
49423;BME280;36998;51.974;20.150;2022-07-29T00:31:05;100578.31;;;15.05;61.28
49423;BME280;36998;51.974;20.150;2022-07-29T00:33:31;100580.00;;;15.06;61.36
49423;BME280;36998;51.974;20.150;2022-07-29T00:35:56;100580.00;;;15.06;61.67
49423;BME280;36998;51.974;20.150;2022-07-29T00:38:22;100590.22;;;15.04;61.81
49423;BME280;36998;51.974;20.150;2022-07-29T00:40:47;100587.69;;;15.02;61.82
49423;BME280;36998;51.974;20.150;2022-07-29T00:43:14;100589.56;;;15.02;61.74
49423;BME280;36998;51.974;20.150;2022-07-29T00:45:40;100584.97;;;15.02;62.13
49423;BME280;36998;51.974;20.150;2022-07-29T00:48:06;100588.06;;;14.99;62.03
49423;BME280;36998;51.974;20.150;2022-07-29T00:50:34;100582.41;;;15.01;61.94
49423;BME280;36998;51.974;20.150;2022-07-29T00:53:01;100598.72;;;15.01;62.04
49423;BME280;36998;51.974;20.150;2022-07-29T00:55:27;100590.56;;;15.01;62.22
49423;BME280;36998;51.974;20.150;2022-07-29T00:57:55;100588.72;;;15.01;61.87
49423;BME280;36998;51.974;20.150;2022-07-29T01:00:26;100587.00;;;15.00;61.88
49423;BME280;36998;51.974;20.150;2022-07-29T01:02:52;100594.53;;;14.98;62.28
49423;BME280;36998;51.974;20.150;2022-07-29T01:05:20;100593.19;;;14.94;62.53
49423;BME280;36998;51.974;20.150;2022-07-29T01:07:48;100597.78;;;14.93;62.50
49423;BME280;36998;51.974;20.150;2022-07-29T01:10:15;100595.25;;;14.92;62.44
49423;BME280;36998;51.974;20.150;2022-07-29T01:12:43;100589.63;;;14.93;62.44
49423;BME280;36998;51.974;20.150;2022-07-29T01:15:09;100591.72;;;14.91;62.41
49423;BME280;36998;51.974;20.150;2022-07-29T01:17:41;100592.91;;;14.89;62.53
49423;BME280;36998;51.974;20.150;2022-07-29T01:20:24;100593.06;;;14.87;62.63
49423;BME280;36998;51.974;20.150;2022-07-29T01:26:13;100585.84;;;14.80;62.88
49423;BME280;36998;51.974;20.150;2022-07-29T01:32:06;100589.03;;;14.68;62.84
49423;BME280;36998;51.974;20.150;2022-07-29T01:34:42;100594.63;;;14.67;63.04
49423;BME280;36998;51.974;20.150;2022-07-29T01:37:24;100583.47;;;14.62;62.91
49423;BME280;36998;51.974;20.150;2022-07-29T01:39:54;100586.72;;;14.57;62.94
49423;BME280;36998;51.974;20.150;2022-07-29T01:42:27;100589.63;;;14.56;63.04
49423;BME280;36998;51.974;20.150;2022-07-29T01:45:02;100589.16;;;14.52;63.15
49423;BME280;36998;51.974;20.150;2022-07-29T01:47:37;100592.03;;;14.50;63.12
49423;BME280;36998;51.974;20.150;2022-07-29T01:50:07;100590.00;;;14.52;63.01
49423;BME280;36998;51.974;20.150;2022-07-29T01:52:37;100590.47;;;14.48;63.54
49423;BME280;36998;51.974;20.150;2022-07-29T01:55:13;100586.09;;;14.47;63.58
49423;BME280;36998;51.974;20.150;2022-07-29T01:57:40;100588.31;;;14.43;63.45
49423;BME280;36998;51.974;20.150;2022-07-29T02:00:08;100589.72;;;14.39;63.88
49423;BME280;36998;51.974;20.150;2022-07-29T02:02:44;100584.28;;;14.39;63.99
49423;BME280;36998;51.974;20.150;2022-07-29T02:05:15;100579.38;;;14.35;63.66
49423;BME280;36998;51.974;20.150;2022-07-29T02:07:41;100579.09;;;14.29;63.60
49423;BME280;36998;51.974;20.150;2022-07-29T02:10:09;100581.81;;;14.29;63.77
49423;BME280;36998;51.974;20.150;2022-07-29T02:12:37;100588.59;;;14.25;64.45
49423;BME280;36998;51.974;20.150;2022-07-29T02:15:05;100581.69;;;14.23;64.15
49423;BME280;36998;51.974;20.150;2022-07-29T02:17:58;100585.22;;;14.23;64.16
49423;BME280;36998;51.974;20.150;2022-07-29T02:20:25;100598.34;;;14.20;64.28
49423;BME280;36998;51.974;20.150;2022-07-29T02:22:52;100596.13;;;14.15;64.44
49423;BME280;36998;51.974;20.150;2022-07-29T02:25:21;100595.13;;;14.16;64.77
49423;BME280;36998;51.974;20.150;2022-07-29T02:27:49;100598.38;;;14.12;64.87
49423;BME280;36998;51.974;20.150;2022-07-29T02:30:16;100595.00;;;14.10;64.80
49423;BME280;36998;51.974;20.150;2022-07-29T02:32:43;100586.72;;;14.03;64.76
49423;BME280;36998;51.974;20.150;2022-07-29T02:35:13;100591.47;;;14.01;65.23
49423;BME280;36998;51.974;20.150;2022-07-29T02:37:39;100586.88;;;14.01;65.23
49423;BME280;36998;51.974;20.150;2022-07-29T02:40:11;100595.22;;;14.00;65.24
49423;BME280;36998;51.974;20.150;2022-07-29T02:42:42;100592.19;;;13.95;65.14
49423;BME280;36998;51.974;20.150;2022-07-29T02:45:09;100582.50;;;13.92;65.35
49423;BME280;36998;51.974;20.150;2022-07-29T02:47:43;100585.22;;;13.92;65.76
49423;BME280;36998;51.974;20.150;2022-07-29T02:50:43;100583.75;;;13.90;65.44
49423;BME280;36998;51.974;20.150;2022-07-29T02:53:16;100588.50;;;13.88;65.60
49423;BME280;36998;51.974;20.150;2022-07-29T02:55:51;100587.81;;;13.86;65.59
49423;BME280;36998;51.974;20.150;2022-07-29T02:58:33;100579.03;;;13.84;65.52
49423;BME280;36998;51.974;20.150;2022-07-29T03:01:02;100586.66;;;13.80;66.12
49423;BME280;36998;51.974;20.150;2022-07-29T03:03:30;100576.81;;;13.79;65.99
49423;BME280;36998;51.974;20.150;2022-07-29T03:05:59;100578.69;;;13.78;65.75
49423;BME280;36998;51.974;20.150;2022-07-29T03:08:27;100570.91;;;13.75;66.09
49423;BME280;36998;51.974;20.150;2022-07-29T03:10:53;100570.25;;;13.73;65.94
49423;BME280;36998;51.974;20.150;2022-07-29T03:13:20;100583.63;;;13.75;66.07
49423;BME280;36998;51.974;20.150;2022-07-29T03:15:47;100579.88;;;13.76;65.97
49423;BME280;36998;51.974;20.150;2022-07-29T03:18:13;100579.03;;;13.75;66.17
49423;BME280;36998;51.974;20.150;2022-07-29T03:20:39;100579.03;;;13.75;66.16
49423;BME280;36998;51.974;20.150;2022-07-29T03:23:06;100587.19;;;13.75;66.13
49423;BME280;36998;51.974;20.150;2022-07-29T03:25:32;100585.31;;;13.76;65.44
49423;BME280;36998;51.974;20.150;2022-07-29T03:27:59;100581.41;;;13.78;65.69
49423;BME280;36998;51.974;20.150;2022-07-29T03:30:27;100586.13;;;13.85;65.60
49423;BME280;36998;51.974;20.150;2022-07-29T03:32:56;100578.13;;;13.91;65.49
49423;BME280;36998;51.974;20.150;2022-07-29T03:35:22;100588.28;;;13.89;65.80
49423;BME280;36998;51.974;20.150;2022-07-29T03:37:48;100589.66;;;13.93;65.36
49423;BME280;36998;51.974;20.150;2022-07-29T03:40:18;100598.78;;;14.00;65.68
49423;BME280;36998;51.974;20.150;2022-07-29T03:42:45;100602.66;;;14.06;65.46
49423;BME280;36998;51.974;20.150;2022-07-29T03:45:14;100601.44;;;14.09;65.57
49423;BME280;36998;51.974;20.150;2022-07-29T03:47:45;100609.72;;;14.15;65.25
49423;BME280;36998;51.974;20.150;2022-07-29T03:50:14;100600.38;;;14.18;64.83
49423;BME280;36998;51.974;20.150;2022-07-29T03:52:40;100597.78;;;14.24;65.07
49423;BME280;36998;51.974;20.150;2022-07-29T03:55:07;100592.47;;;14.31;64.62
49423;BME280;36998;51.974;20.150;2022-07-29T03:57:34;100583.13;;;14.34;64.96
49423;BME280;36998;51.974;20.150;2022-07-29T04:00:02;100583.91;;;14.42;64.57
49423;BME280;36998;51.974;20.150;2022-07-29T04:02:36;100595.06;;;14.47;64.57
49423;BME280;36998;51.974;20.150;2022-07-29T04:05:03;100589.63;;;14.56;64.07
49423;BME280;36998;51.974;20.150;2022-07-29T04:07:28;100596.38;;;14.60;64.14
49423;BME280;36998;51.974;20.150;2022-07-29T04:09:55;100594.81;;;14.65;64.47
49423;BME280;36998;51.974;20.150;2022-07-29T04:12:20;100596.13;;;14.69;63.99
49423;BME280;36998;51.974;20.150;2022-07-29T04:14:46;100592.69;;;14.75;64.12
49423;BME280;36998;51.974;20.150;2022-07-29T04:17:11;100598.03;;;14.84;63.62
49423;BME280;36998;51.974;20.150;2022-07-29T04:19:37;100610.06;;;14.89;63.56
49423;BME280;36998;51.974;20.150;2022-07-29T04:22:02;100602.03;;;14.96;63.67
49423;BME280;36998;51.974;20.150;2022-07-29T04:24:28;100604.00;;;15.02;63.81
49423;BME280;36998;51.974;20.150;2022-07-29T04:26:54;100593.41;;;15.07;63.50
49423;BME280;36998;51.974;20.150;2022-07-29T04:29:19;100595.22;;;15.15;63.20
49423;BME280;36998;51.974;20.150;2022-07-29T04:31:45;100598.88;;;15.22;63.24
49423;BME280;36998;51.974;20.150;2022-07-29T04:34:11;100605.09;;;15.31;63.20
49423;BME280;36998;51.974;20.150;2022-07-29T04:36:37;100605.34;;;15.36;63.13
49423;BME280;36998;51.974;20.150;2022-07-29T04:39:03;100597.13;;;15.44;63.37
49423;BME280;36998;51.974;20.150;2022-07-29T04:41:29;100598.72;;;15.53;63.14
49423;BME280;36998;51.974;20.150;2022-07-29T04:43:54;100606.78;;;15.61;62.88
49423;BME280;36998;51.974;20.150;2022-07-29T04:46:20;100608.03;;;15.74;62.92
49423;BME280;36998;51.974;20.150;2022-07-29T04:48:46;100613.34;;;15.82;62.63
49423;BME280;36998;51.974;20.150;2022-07-29T04:51:13;100605.47;;;15.87;62.67
49423;BME280;36998;51.974;20.150;2022-07-29T04:53:38;100619.81;;;15.96;62.27
49423;BME280;36998;51.974;20.150;2022-07-29T04:56:04;100621.59;;;16.03;62.40
49423;BME280;36998;51.974;20.150;2022-07-29T04:58:33;100612.66;;;16.09;62.21
49423;BME280;36998;51.974;20.150;2022-07-29T05:00:59;100605.22;;;16.18;62.18
49423;BME280;36998;51.974;20.150;2022-07-29T05:03:40;100600.88;;;16.24;62.27
49423;BME280;36998;51.974;20.150;2022-07-29T05:06:05;100609.97;;;16.31;61.85
49423;BME280;36998;51.974;20.150;2022-07-29T05:08:48;100606.28;;;16.38;62.01
49423;BME280;36998;51.974;20.150;2022-07-29T05:11:14;100615.56;;;16.44;61.58
49423;BME280;36998;51.974;20.150;2022-07-29T05:13:40;100598.25;;;16.52;61.68
49423;BME280;36998;51.974;20.150;2022-07-29T05:16:07;100609.00;;;16.60;61.85
49423;BME280;36998;51.974;20.150;2022-07-29T05:18:33;100610.56;;;16.69;61.43
49423;BME280;36998;51.974;20.150;2022-07-29T05:20:58;100607.72;;;16.77;61.76
49423;BME280;36998;51.974;20.150;2022-07-29T05:23:24;100602.81;;;16.88;61.25
49423;BME280;36998;51.974;20.150;2022-07-29T05:25:49;100601.59;;;16.97;61.55
49423;BME280;36998;51.974;20.150;2022-07-29T05:28:15;100599.41;;;17.07;61.22
49423;BME280;36998;51.974;20.150;2022-07-29T05:30:41;100595.28;;;17.18;61.21
49423;BME280;36998;51.974;20.150;2022-07-29T05:33:06;100596.41;;;17.30;60.67
49423;BME280;36998;51.974;20.150;2022-07-29T05:35:32;100590.78;;;17.38;60.75
49423;BME280;36998;51.974;20.150;2022-07-29T05:37:57;100599.47;;;17.48;60.57
49423;BME280;36998;51.974;20.150;2022-07-29T05:40:23;100597.41;;;17.57;60.46
49423;BME280;36998;51.974;20.150;2022-07-29T05:42:49;100603.34;;;17.67;60.17
49423;BME280;36998;51.974;20.150;2022-07-29T05:45:14;100604.03;;;17.76;60.17
49423;BME280;36998;51.974;20.150;2022-07-29T05:47:40;100604.53;;;17.86;60.36
49423;BME280;36998;51.974;20.150;2022-07-29T05:50:06;100599.53;;;17.96;60.02
49423;BME280;36998;51.974;20.150;2022-07-29T05:52:32;100605.25;;;18.08;60.12
49423;BME280;36998;51.974;20.150;2022-07-29T05:55:04;100596.66;;;18.18;59.79
49423;BME280;36998;51.974;20.150;2022-07-29T05:57:33;100594.41;;;18.28;59.73
49423;BME280;36998;51.974;20.150;2022-07-29T05:59:58;100595.44;;;18.40;59.54
49423;BME280;36998;51.974;20.150;2022-07-29T06:02:24;100599.50;;;18.51;59.45
49423;BME280;36998;51.974;20.150;2022-07-29T06:04:50;100597.81;;;18.63;59.10
49423;BME280;36998;51.974;20.150;2022-07-29T06:07:36;100600.81;;;18.75;59.17
49423;BME280;36998;51.974;20.150;2022-07-29T06:10:02;100590.50;;;18.84;58.84
49423;BME280;36998;51.974;20.150;2022-07-29T06:12:27;100596.19;;;18.95;58.80
49423;BME280;36998;51.974;20.150;2022-07-29T06:14:53;100590.09;;;19.07;58.08
49423;BME280;36998;51.974;20.150;2022-07-29T06:17:18;100600.38;;;19.18;58.45
49423;BME280;36998;51.974;20.150;2022-07-29T06:19:44;100608.38;;;19.33;58.10
49423;BME280;36998;51.974;20.150;2022-07-29T06:22:09;100593.19;;;19.44;58.01
49423;BME280;36998;51.974;20.150;2022-07-29T06:24:36;100595.25;;;19.55;57.51
49423;BME280;36998;51.974;20.150;2022-07-29T06:27:02;100600.72;;;19.68;57.33
49423;BME280;36998;51.974;20.150;2022-07-29T06:29:28;100601.56;;;19.75;57.21
49423;BME280;36998;51.974;20.150;2022-07-29T06:31:53;100599.22;;;19.85;56.97
49423;BME280;36998;51.974;20.150;2022-07-29T06:34:20;100597.69;;;19.96;56.82
49423;BME280;36998;51.974;20.150;2022-07-29T06:36:47;100602.72;;;20.06;56.35
49423;BME280;36998;51.974;20.150;2022-07-29T06:39:24;100608.13;;;20.19;56.28
49423;BME280;36998;51.974;20.150;2022-07-29T06:41:50;100605.16;;;20.27;55.97
49423;BME280;36998;51.974;20.150;2022-07-29T06:44:48;100606.94;;;20.40;55.51
49423;BME280;36998;51.974;20.150;2022-07-29T06:47:13;100602.06;;;20.49;54.62
49423;BME280;36998;51.974;20.150;2022-07-29T06:49:39;100604.53;;;20.64;54.54
49423;BME280;36998;51.974;20.150;2022-07-29T06:52:05;100601.50;;;20.72;54.13
49423;BME280;36998;51.974;20.150;2022-07-29T06:54:31;100604.38;;;20.84;54.68
49423;BME280;36998;51.974;20.150;2022-07-29T06:56:56;100594.19;;;20.91;54.37
49423;BME280;36998;51.974;20.150;2022-07-29T06:59:22;100601.69;;;21.02;54.12
49423;BME280;36998;51.974;20.150;2022-07-29T07:01:47;100597.59;;;21.11;53.80
49423;BME280;36998;51.974;20.150;2022-07-29T07:04:16;100598.56;;;21.23;53.38
49423;BME280;36998;51.974;20.150;2022-07-29T07:06:41;100589.59;;;21.35;52.98
49423;BME280;36998;51.974;20.150;2022-07-29T07:09:07;100589.50;;;21.41;52.86
49423;BME280;36998;51.974;20.150;2022-07-29T07:11:33;100587.31;;;21.50;52.76
49423;BME280;36998;51.974;20.150;2022-07-29T07:13:59;100590.63;;;21.59;52.21
49423;BME280;36998;51.974;20.150;2022-07-29T07:16:25;100589.47;;;21.66;52.16
49423;BME280;36998;51.974;20.150;2022-07-29T07:18:51;100581.75;;;21.75;51.44
49423;BME280;36998;51.974;20.150;2022-07-29T07:21:16;100582.28;;;21.84;50.70
49423;BME280;36998;51.974;20.150;2022-07-29T07:23:44;100582.56;;;21.94;50.78
49423;BME280;36998;51.974;20.150;2022-07-29T07:26:09;100579.50;;;22.02;50.34
49423;BME280;36998;51.974;20.150;2022-07-29T07:28:36;100577.88;;;22.13;50.16
49423;BME280;36998;51.974;20.150;2022-07-29T07:31:02;100585.97;;;22.26;50.14
49423;BME280;36998;51.974;20.150;2022-07-29T07:33:29;100587.13;;;22.37;49.69
49423;BME280;36998;51.974;20.150;2022-07-29T07:35:55;100584.63;;;22.47;49.08
49423;BME280;36998;51.974;20.150;2022-07-29T07:38:21;100596.50;;;22.59;48.92
49423;BME280;36998;51.974;20.150;2022-07-29T07:40:46;100586.00;;;22.68;48.27
49423;BME280;36998;51.974;20.150;2022-07-29T07:43:12;100587.34;;;22.77;47.87
49423;BME280;36998;51.974;20.150;2022-07-29T07:45:37;100589.53;;;22.87;47.19
49423;BME280;36998;51.974;20.150;2022-07-29T07:48:05;100584.75;;;22.94;47.21
49423;BME280;36998;51.974;20.150;2022-07-29T07:50:31;100590.53;;;23.04;46.86
49423;BME280;36998;51.974;20.150;2022-07-29T07:52:58;100591.59;;;23.15;46.80
49423;BME280;36998;51.974;20.150;2022-07-29T07:55:24;100583.13;;;23.28;46.09
49423;BME280;36998;51.974;20.150;2022-07-29T07:57:50;100590.28;;;23.41;45.65
49423;BME280;36998;51.974;20.150;2022-07-29T08:00:18;100582.63;;;23.55;45.59
49423;BME280;36998;51.974;20.150;2022-07-29T08:02:44;100574.94;;;23.69;45.13
49423;BME280;36998;51.974;20.150;2022-07-29T08:05:27;100585.22;;;23.85;44.51
49423;BME280;36998;51.974;20.150;2022-07-29T08:07:54;100576.66;;;23.98;44.21
49423;BME280;36998;51.974;20.150;2022-07-29T08:10:20;100583.91;;;24.16;43.85
49423;BME280;36998;51.974;20.150;2022-07-29T08:13:05;100573.84;;;24.39;43.32
49423;BME280;36998;51.974;20.150;2022-07-29T08:15:32;100575.13;;;24.60;42.64
49423;BME280;36998;51.974;20.150;2022-07-29T08:17:57;100578.22;;;24.80;42.01
49423;BME280;36998;51.974;20.150;2022-07-29T08:20:23;100568.66;;;25.05;41.60
49423;BME280;36998;51.974;20.150;2022-07-29T08:23:14;100572.44;;;25.32;41.40
49423;BME280;36998;51.974;20.150;2022-07-29T08:25:40;100568.31;;;25.52;40.57
49423;BME280;36998;51.974;20.150;2022-07-29T08:28:07;100564.66;;;25.68;40.40
49423;BME280;36998;51.974;20.150;2022-07-29T08:31:02;100564.75;;;25.95;39.70
49423;BME280;36998;51.974;20.150;2022-07-29T08:33:32;100559.38;;;26.10;39.05
49423;BME280;36998;51.974;20.150;2022-07-29T08:35:59;100559.88;;;26.29;38.09
49423;BME280;36998;51.974;20.150;2022-07-29T08:38:25;100561.13;;;26.44;38.14
49423;BME280;36998;51.974;20.150;2022-07-29T08:40:55;100567.94;;;26.58;37.70
49423;BME280;36998;51.974;20.150;2022-07-29T08:43:21;100571.75;;;26.84;37.02
49423;BME280;36998;51.974;20.150;2022-07-29T08:45:49;100563.44;;;27.16;36.05
49423;BME280;36998;51.974;20.150;2022-07-29T08:48:17;100557.84;;;27.48;35.60
49423;BME280;36998;51.974;20.150;2022-07-29T08:50:44;100551.91;;;27.82;35.04
49423;BME280;36998;51.974;20.150;2022-07-29T08:53:11;100547.59;;;28.17;34.92
49423;BME280;36998;51.974;20.150;2022-07-29T08:55:45;100549.91;;;28.66;34.24
49423;BME280;36998;51.974;20.150;2022-07-29T08:58:13;100546.31;;;29.11;33.64
49423;BME280;36998;51.974;20.150;2022-07-29T09:00:42;100540.09;;;29.60;33.05
49423;BME280;36998;51.974;20.150;2022-07-29T09:03:09;100543.03;;;29.90;33.07
49423;BME280;36998;51.974;20.150;2022-07-29T09:05:38;100550.47;;;30.09;32.29
49423;BME280;36998;51.974;20.150;2022-07-29T09:08:06;100552.28;;;30.35;31.42
49423;BME280;36998;51.974;20.150;2022-07-29T09:10:32;100556.38;;;30.47;31.15
49423;BME280;36998;51.974;20.150;2022-07-29T09:12:58;100549.13;;;30.46;31.25
49423;BME280;36998;51.974;20.150;2022-07-29T09:15:25;100552.09;;;30.60;30.98
49423;BME280;36998;51.974;20.150;2022-07-29T09:17:50;100546.97;;;30.72;30.66
49423;BME280;36998;51.974;20.150;2022-07-29T09:20:21;100537.31;;;30.65;30.55
49423;BME280;36998;51.974;20.150;2022-07-29T09:22:47;100547.66;;;30.59;30.54
49423;BME280;36998;51.974;20.150;2022-07-29T09:25:36;100529.53;;;30.56;30.72
49423;BME280;36998;51.974;20.150;2022-07-29T09:28:15;100530.13;;;30.53;30.18
49423;BME280;36998;51.974;20.150;2022-07-29T09:30:51;100544.56;;;30.61;30.64
49423;BME280;36998;51.974;20.150;2022-07-29T09:33:18;100542.22;;;30.73;30.71
49423;BME280;36998;51.974;20.150;2022-07-29T09:35:43;100533.78;;;30.88;30.02
49423;BME280;36998;51.974;20.150;2022-07-29T09:38:57;100522.22;;;31.00;29.13
49423;BME280;36998;51.974;20.150;2022-07-29T09:41:27;100533.44;;;30.95;29.46
49423;BME280;36998;51.974;20.150;2022-07-29T09:43:56;100529.75;;;30.99;29.54
49423;BME280;36998;51.974;20.150;2022-07-29T09:46:22;100517.66;;;31.38;29.97
49423;BME280;36998;51.974;20.150;2022-07-29T09:49:18;100516.03;;;31.32;29.08
49423;BME280;36998;51.974;20.150;2022-07-29T09:51:43;100522.72;;;31.36;29.26
49423;BME280;36998;51.974;20.150;2022-07-29T09:54:27;100522.72;;;31.36;29.04
49423;BME280;36998;51.974;20.150;2022-07-29T09:56:54;100513.22;;;31.32;28.47
49423;BME280;36998;51.974;20.150;2022-07-29T09:59:21;100517.19;;;31.26;28.82
49423;BME280;36998;51.974;20.150;2022-07-29T10:01:49;100525.28;;;31.28;28.85
49423;BME280;36998;51.974;20.150;2022-07-29T10:04:15;100523.78;;;31.40;27.99
49423;BME280;36998;51.974;20.150;2022-07-29T10:07:02;100509.66;;;31.56;28.36
49423;BME280;36998;51.974;20.150;2022-07-29T10:09:29;100512.78;;;31.73;27.46
49423;BME280;36998;51.974;20.150;2022-07-29T10:12:11;100505.91;;;31.84;27.41
49423;BME280;36998;51.974;20.150;2022-07-29T10:14:39;100508.59;;;31.94;26.90
49423;BME280;36998;51.974;20.150;2022-07-29T10:17:06;100497.81;;;32.07;26.30
49423;BME280;36998;51.974;20.150;2022-07-29T10:19:32;100501.81;;;32.20;26.63
49423;BME280;36998;51.974;20.150;2022-07-29T10:21:59;100498.84;;;32.11;26.76
49423;BME280;36998;51.974;20.150;2022-07-29T10:24:27;100493.50;;;31.96;27.36
49423;BME280;36998;51.974;20.150;2022-07-29T10:26:55;100498.19;;;32.00;26.79
49423;BME280;36998;51.974;20.150;2022-07-29T10:29:21;100494.50;;;32.05;26.82
49423;BME280;36998;51.974;20.150;2022-07-29T10:32:07;100496.66;;;32.27;26.92
49423;BME280;36998;51.974;20.150;2022-07-29T10:40:00;100486.81;;;32.67;26.28
49423;BME280;36998;51.974;20.150;2022-07-29T10:42:49;100480.53;;;32.75;26.16
49423;BME280;36998;51.974;20.150;2022-07-29T10:45:17;100484.06;;;32.81;26.01
49423;BME280;36998;51.974;20.150;2022-07-29T10:47:42;100486.53;;;32.82;25.99
49423;BME280;36998;51.974;20.150;2022-07-29T10:50:08;100486.13;;;32.89;26.11
49423;BME280;36998;51.974;20.150;2022-07-29T10:52:52;100488.59;;;33.09;25.86
49423;BME280;36998;51.974;20.150;2022-07-29T10:55:34;100481.84;;;32.97;25.88
49423;BME280;36998;51.974;20.150;2022-07-29T10:58:14;100475.94;;;33.12;26.10
49423;BME280;36998;51.974;20.150;2022-07-29T11:01:29;100470.91;;;32.95;25.27
49423;BME280;36998;51.974;20.150;2022-07-29T11:03:55;100473.28;;;32.74;25.57
49423;BME280;36998;51.974;20.150;2022-07-29T11:06:21;100472.44;;;32.74;25.63
49423;BME280;36998;51.974;20.150;2022-07-29T11:09:17;100464.81;;;32.93;25.31
49423;BME280;36998;51.974;20.150;2022-07-29T11:11:46;100467.13;;;33.05;25.56
49423;BME280;36998;51.974;20.150;2022-07-29T11:14:12;100479.34;;;33.09;25.70
49423;BME280;36998;51.974;20.150;2022-07-29T11:17:00;100463.41;;;33.09;25.66
49423;BME280;36998;51.974;20.150;2022-07-29T11:19:28;100458.84;;;33.00;25.26
49423;BME280;36998;51.974;20.150;2022-07-29T11:21:53;100461.56;;;32.86;25.83
49423;BME280;36998;51.974;20.150;2022-07-29T11:24:21;100457.25;;;32.94;25.05
49423;BME280;36998;51.974;20.150;2022-07-29T11:27:14;100459.34;;;33.02;25.05
49423;BME280;36998;51.974;20.150;2022-07-29T11:29:53;100452.44;;;33.13;24.92
49423;BME280;36998;51.974;20.150;2022-07-29T11:32:20;100454.28;;;33.31;25.47
49423;BME280;36998;51.974;20.150;2022-07-29T11:34:47;100452.56;;;33.49;24.84
49423;BME280;36998;51.974;20.150;2022-07-29T11:37:15;100444.81;;;34.19;23.94
49423;BME280;36998;51.974;20.150;2022-07-29T11:39:42;100450.22;;;35.62;22.13
49423;BME280;36998;51.974;20.150;2022-07-29T11:47:24;100439.91;;;40.48;17.80
49423;BME280;36998;51.974;20.150;2022-07-29T11:49:51;100441.22;;;39.70;18.37
49423;BME280;36998;51.974;20.150;2022-07-29T11:52:18;100450.53;;;38.64;18.88
49423;BME280;36998;51.974;20.150;2022-07-29T11:54:47;100433.38;;;37.73;19.74
49423;BME280;36998;51.974;20.150;2022-07-29T11:57:16;100440.31;;;37.55;19.80
49423;BME280;36998;51.974;20.150;2022-07-29T11:59:43;100435.75;;;37.92;19.40
49423;BME280;36998;51.974;20.150;2022-07-29T12:02:13;100434.88;;;39.00;18.65
49423;BME280;36998;51.974;20.150;2022-07-29T12:04:56;100426.28;;;40.10;17.10
49423;BME280;36998;51.974;20.150;2022-07-29T12:07:28;100425.69;;;41.05;16.81
49423;BME280;36998;51.974;20.150;2022-07-29T12:09:54;100420.50;;;41.42;16.27
49423;BME280;36998;51.974;20.150;2022-07-29T12:12:21;100425.34;;;41.57;16.29
49423;BME280;36998;51.974;20.150;2022-07-29T12:14:47;100427.19;;;41.50;16.24
49423;BME280;36998;51.974;20.150;2022-07-29T12:17:26;100430.22;;;40.78;16.84
49423;BME280;36998;51.974;20.150;2022-07-29T12:19:54;100426.03;;;40.15;17.39
49423;BME280;36998;51.974;20.150;2022-07-29T12:22:31;100430.41;;;39.48;17.48
49423;BME280;36998;51.974;20.150;2022-07-29T12:25:18;100422.41;;;41.03;16.71
49423;BME280;36998;51.974;20.150;2022-07-29T12:27:46;100412.56;;;41.32;16.48
49423;BME280;36998;51.974;20.150;2022-07-29T12:30:15;100410.59;;;41.16;16.69
49423;BME280;36998;51.974;20.150;2022-07-29T12:32:43;100410.63;;;41.52;16.38
49423;BME280;36998;51.974;20.150;2022-07-29T12:35:12;100411.97;;;43.74;14.63
49423;BME280;36998;51.974;20.150;2022-07-29T12:37:40;100426.94;;;47.63;11.70
49423;BME280;36998;51.974;20.150;2022-07-29T12:40:07;100412.19;;;47.64;11.53
49423;BME280;36998;51.974;20.150;2022-07-29T12:42:34;100413.44;;;46.45;12.50
49423;BME280;36998;51.974;20.150;2022-07-29T12:45:00;100404.16;;;45.71;12.58
49423;BME280;36998;51.974;20.150;2022-07-29T12:47:25;100407.41;;;45.66;12.82
49423;BME280;36998;51.974;20.150;2022-07-29T12:50:07;100403.03;;;44.76;13.39
49423;BME280;36998;51.974;20.150;2022-07-29T12:52:35;100401.09;;;44.13;13.97
49423;BME280;36998;51.974;20.150;2022-07-29T12:55:01;100415.09;;;43.95;13.80
49423;BME280;36998;51.974;20.150;2022-07-29T12:57:27;100415.03;;;43.61;14.30
49423;BME280;36998;51.974;20.150;2022-07-29T13:00:08;100403.81;;;43.72;13.74
49423;BME280;36998;51.974;20.150;2022-07-29T13:02:36;100394.41;;;42.69;14.16
49423;BME280;36998;51.974;20.150;2022-07-29T13:05:04;100398.75;;;42.40;14.52
49423;BME280;36998;51.974;20.150;2022-07-29T13:07:31;100396.56;;;42.98;14.42
49423;BME280;36998;51.974;20.150;2022-07-29T13:10:17;100391.50;;;44.66;13.62